Terminal Aerodrome Forecast
Issued by NWS Hastings, NE

Home | Current Version | Previous Version | Text Only | Print | Product List | Glossary On
Versions: 1 2 3 4 5 6 7 8 9 10 11 12 13 14 15 16
000
FTUS45 KGID 231720
TAFEAR
TAF
KEAR 231720Z 2318/2418 16015G21KT P6SM SCT050 SCT150
     FM232200 15011KT P6SM SCT150
     FM240400 16010KT P6SM SCT020 SCT040 WS010/20040KT
     FM241300 18008KT P6SM SCT150
      AMD LTD TO CLD VIS AND WIND=

USA.gov is the U.S. government's official web portal to all federal, state and local government web resources and services.